createdAt,value
2022-12-04T00:00:13.210Z,23.00
2022-12-04T00:02:14.536Z,22.98
2022-12-04T00:04:15.834Z,22.92
2022-12-04T00:06:17.148Z,23.08
2022-12-04T00:08:18.507Z,23.07
2022-12-04T00:10:19.853Z,22.88
2022-12-04T00:12:21.221Z,22.75
2022-12-04T00:14:22.504Z,22.68
2022-12-04T00:16:23.893Z,22.59
2022-12-04T00:18:25.264Z,22.60
2022-12-04T00:20:27.211Z,22.53
2022-12-04T00:22:28.488Z,22.48
2022-12-04T00:24:29.765Z,22.40
2022-12-04T00:26:34.060Z,22.38
2022-12-04T00:28:35.343Z,22.30
2022-12-04T00:30:36.664Z,22.31
2022-12-04T00:32:37.944Z,22.19
2022-12-04T00:34:39.268Z,22.17
2022-12-04T00:36:40.578Z,22.20
2022-12-04T00:38:42.916Z,22.08
2022-12-04T00:40:44.241Z,21.87
2022-12-04T00:42:45.558Z,21.53
2022-12-04T00:44:46.842Z,21.33
2022-12-04T00:46:48.128Z,21.06
2022-12-04T00:48:49.452Z,18.52
2022-12-04T00:50:50.776Z,19.62
2022-12-04T00:52:52.060Z,20.19
2022-12-04T00:54:53.345Z,20.50
2022-12-04T00:56:54.620Z,20.72
2022-12-04T00:58:55.867Z,20.90
2022-12-04T01:00:57.178Z,21.07
2022-12-04T01:02:58.612Z,21.20
2022-12-04T01:05:00.000Z,21.33
2022-12-04T01:07:05.027Z,21.46
2022-12-04T01:09:06.772Z,21.58
2022-12-04T01:11:08.096Z,21.62
2022-12-04T01:13:09.374Z,21.67
2022-12-04T01:15:10.684Z,21.71
2022-12-04T01:17:11.978Z,21.75
2022-12-04T01:19:13.321Z,21.77
2022-12-04T01:21:14.597Z,21.79
2022-12-04T01:23:15.957Z,21.81
2022-12-04T01:25:17.244Z,21.80
2022-12-04T01:27:18.533Z,21.84
2022-12-04T01:29:19.829Z,21.86
2022-12-04T01:31:21.236Z,21.86
2022-12-04T01:33:22.584Z,21.83
2022-12-04T01:35:23.880Z,21.80
2022-12-04T01:37:25.166Z,21.80
2022-12-04T01:39:26.456Z,21.76
2022-12-04T01:41:27.830Z,21.73
2022-12-04T01:43:29.108Z,21.70
2022-12-04T01:45:30.438Z,21.69
2022-12-04T01:47:31.764Z,21.61
2022-12-04T01:49:33.040Z,21.55
2022-12-04T01:51:34.320Z,21.51
2022-12-04T01:53:35.676Z,21.46
2022-12-04T01:55:36.999Z,21.42
2022-12-04T01:57:39.009Z,21.38
2022-12-04T01:59:40.357Z,21.35
2022-12-04T02:01:41.714Z,21.32
2022-12-04T02:03:43.052Z,21.26
2022-12-04T02:05:44.328Z,21.23
2022-12-04T02:07:45.642Z,21.20
2022-12-04T02:09:53.776Z,21.15
2022-12-04T02:11:55.352Z,21.11
2022-12-04T02:13:56.632Z,21.08
2022-12-04T02:15:57.937Z,21.03
2022-12-04T02:17:59.217Z,21.03
2022-12-04T02:20:00.493Z,21.00
2022-12-04T02:22:01.777Z,20.98
2022-12-04T02:24:03.053Z,20.98
2022-12-04T02:26:04.331Z,20.97
2022-12-04T02:28:05.621Z,20.98
2022-12-04T02:30:07.041Z,21.01
2022-12-04T02:32:08.360Z,21.08
2022-12-04T02:34:09.641Z,21.12
2022-12-04T02:36:11.111Z,21.19
2022-12-04T02:38:12.384Z,21.28
2022-12-04T02:40:13.668Z,21.34
2022-12-04T02:42:14.983Z,21.37
2022-12-04T02:44:16.268Z,21.43
2022-12-04T02:46:17.642Z,21.46
2022-12-04T02:48:18.976Z,21.46
2022-12-04T02:50:22.129Z,21.50
2022-12-04T02:52:23.406Z,21.55
2022-12-04T02:54:24.681Z,21.58
2022-12-04T02:56:25.964Z,21.58
2022-12-04T02:58:27.308Z,21.58
2022-12-04T03:00:28.656Z,21.57
2022-12-04T03:02:30.014Z,21.55
2022-12-04T03:04:31.717Z,21.57
2022-12-04T03:06:33.028Z,21.52
2022-12-04T03:08:34.352Z,21.50
2022-12-04T03:10:35.704Z,21.48
2022-12-04T03:12:37.019Z,21.43
2022-12-04T03:14:38.301Z,21.40
2022-12-04T03:16:39.649Z,21.37
2022-12-04T03:18:40.998Z,21.35
2022-12-04T03:20:42.272Z,21.31
2022-12-04T03:22:43.611Z,21.26
2022-12-04T03:24:44.994Z,21.22
2022-12-04T03:26:46.287Z,21.20
2022-12-04T03:28:47.604Z,21.17
2022-12-04T03:30:48.996Z,21.12
2022-12-04T03:32:50.357Z,21.13
2022-12-04T03:34:51.640Z,21.08
2022-12-04T03:36:52.925Z,21.06
2022-12-04T03:38:54.206Z,21.05
2022-12-04T03:40:55.828Z,21.02
2022-12-04T03:42:57.156Z,21.01
2022-12-04T03:44:58.521Z,21.00
2022-12-04T03:46:59.832Z,21.01
2022-12-04T03:49:01.148Z,21.02
2022-12-04T03:51:02.420Z,21.06
2022-12-04T03:53:03.848Z,21.10
2022-12-04T03:55:05.123Z,21.13
2022-12-04T03:57:06.400Z,21.18
2022-12-04T03:59:07.725Z,21.25
2022-12-04T04:01:09.053Z,21.28
2022-12-04T04:03:10.459Z,21.35
2022-12-04T04:05:11.763Z,21.39
2022-12-04T04:07:13.089Z,21.45
2022-12-04T04:09:14.369Z,21.50
2022-12-04T04:11:15.648Z,21.53
2022-12-04T04:13:35.567Z,21.54
2022-12-04T04:15:55.577Z,21.54
2022-12-04T04:18:15.666Z,21.55
2022-12-04T04:20:35.740Z,21.57
2022-12-04T04:22:56.338Z,21.58
2022-12-04T04:24:57.759Z,21.53
2022-12-04T04:26:59.299Z,21.52
2022-12-04T04:29:00.571Z,21.49
2022-12-04T04:31:01.955Z,21.45
2022-12-04T04:33:03.294Z,21.42
2022-12-04T04:35:04.722Z,21.39
2022-12-04T04:37:06.019Z,21.36
2022-12-04T04:39:07.298Z,21.31
2022-12-04T04:41:08.612Z,21.29
2022-12-04T04:43:09.884Z,21.25
2022-12-04T04:45:11.193Z,21.21
2022-12-04T04:47:12.515Z,21.16
2022-12-04T04:49:13.796Z,21.14
2022-12-04T04:51:15.075Z,21.08
2022-12-04T04:53:16.400Z,21.06
2022-12-04T04:55:17.680Z,21.04
2022-12-04T04:57:19.008Z,21.00
2022-12-04T04:59:20.284Z,21.01
2022-12-04T05:01:21.631Z,21.00
2022-12-04T05:03:22.983Z,21.01
2022-12-04T05:05:24.309Z,21.01
2022-12-04T05:07:25.582Z,21.04
2022-12-04T05:09:26.976Z,21.08
2022-12-04T05:11:28.296Z,21.14
2022-12-04T05:13:29.568Z,21.18
2022-12-04T05:15:30.920Z,21.24
2022-12-04T05:17:32.199Z,21.29
2022-12-04T05:19:52.466Z,21.37
2022-12-04T05:21:53.892Z,21.40
2022-12-04T05:23:55.172Z,21.48
2022-12-04T05:25:56.469Z,21.59
2022-12-04T05:27:58.312Z,21.60
2022-12-04T05:29:59.781Z,21.63
2022-12-04T05:32:01.083Z,21.62
2022-12-04T05:34:02.416Z,21.64
2022-12-04T05:36:03.724Z,21.62
2022-12-04T05:38:05.009Z,21.58
2022-12-04T05:40:06.573Z,21.52
2022-12-04T05:42:07.860Z,21.49
2022-12-04T05:44:09.150Z,21.44
2022-12-04T05:46:10.711Z,21.40
2022-12-04T05:48:12.046Z,21.45
2022-12-04T05:50:13.336Z,21.29
2022-12-04T05:52:14.697Z,21.16
2022-12-04T05:54:16.081Z,21.09
2022-12-04T05:56:17.364Z,21.03
2022-12-04T05:58:18.641Z,20.97
2022-12-04T06:00:19.930Z,20.92
2022-12-04T06:02:21.294Z,20.89
2022-12-04T06:04:22.693Z,20.87
2022-12-04T06:06:24.028Z,20.85
2022-12-04T06:08:25.310Z,20.83
2022-12-04T06:10:26.588Z,20.82
2022-12-04T06:12:27.866Z,20.85
2022-12-04T06:14:29.154Z,20.94
2022-12-04T06:16:30.556Z,21.09
2022-12-04T06:18:31.925Z,21.18
2022-12-04T06:20:33.316Z,21.20
2022-12-04T06:22:34.641Z,21.27
2022-12-04T06:24:35.959Z,21.30
2022-12-04T06:26:43.969Z,21.32
2022-12-04T06:28:58.548Z,21.39
2022-12-04T06:30:59.846Z,21.43
2022-12-04T06:33:01.127Z,21.47
2022-12-04T06:35:02.496Z,21.51
2022-12-04T06:37:03.828Z,21.55
2022-12-04T06:39:05.161Z,21.59
2022-12-04T06:41:06.477Z,21.58
2022-12-04T06:43:07.928Z,21.62
2022-12-04T06:45:09.412Z,21.71
2022-12-04T06:47:10.739Z,21.70
2022-12-04T06:49:12.076Z,21.70
2022-12-04T06:51:13.401Z,21.68
2022-12-04T06:53:14.909Z,21.68
2022-12-04T06:55:16.230Z,21.59
2022-12-04T06:57:17.518Z,20.67
2022-12-04T06:59:18.843Z,21.47
2022-12-04T07:01:20.215Z,21.41
2022-12-04T07:03:21.522Z,21.38
2022-12-04T07:05:22.799Z,21.30
2022-12-04T07:07:24.076Z,21.22
2022-12-04T07:09:25.384Z,21.16
2022-12-04T07:11:26.685Z,21.09
2022-12-04T07:13:28.023Z,21.01
2022-12-04T07:15:29.323Z,21.00
2022-12-04T07:17:30.625Z,20.97
2022-12-04T07:19:31.913Z,20.93
2022-12-04T07:21:34.604Z,20.88
2022-12-04T07:23:35.988Z,20.84
2022-12-04T07:25:37.308Z,20.81
2022-12-04T07:27:38.592Z,20.84
2022-12-04T07:29:39.873Z,20.85
2022-12-04T07:31:41.253Z,20.82
2022-12-04T07:33:42.593Z,20.83
2022-12-04T07:35:43.901Z,20.87
2022-12-04T07:37:45.236Z,20.92
2022-12-04T07:39:46.516Z,21.02
2022-12-04T07:41:47.793Z,21.11
2022-12-04T07:43:49.109Z,21.17
2022-12-04T07:45:50.437Z,21.20
2022-12-04T07:47:51.725Z,21.29
2022-12-04T07:49:53.084Z,21.33
2022-12-04T07:51:54.409Z,21.38
2022-12-04T07:54:02.711Z,21.45
2022-12-04T07:56:04.680Z,21.51
2022-12-04T07:58:06.175Z,21.53
2022-12-04T08:00:07.460Z,21.56
2022-12-04T08:02:08.778Z,21.60
2022-12-04T08:04:10.091Z,21.64
2022-12-04T08:06:11.430Z,21.66
2022-12-04T08:08:12.730Z,20.79
2022-12-04T08:10:14.064Z,21.70
2022-12-04T08:12:15.363Z,21.72
2022-12-04T08:14:16.686Z,21.70
2022-12-04T08:16:17.993Z,21.64
2022-12-04T08:18:20.132Z,21.65
2022-12-04T08:20:21.619Z,21.61
2022-12-04T08:22:25.269Z,21.59
2022-12-04T08:24:26.833Z,21.54
2022-12-04T08:26:28.235Z,21.51
2022-12-04T08:28:29.572Z,21.47
2022-12-04T08:30:30.995Z,21.41
2022-12-04T08:32:34.838Z,21.38
2022-12-04T08:34:36.182Z,21.36
2022-12-04T08:36:37.501Z,21.32
2022-12-04T08:38:38.834Z,21.26
2022-12-04T08:40:40.323Z,21.21
2022-12-04T08:42:41.628Z,21.17
2022-12-04T08:44:42.904Z,21.12
2022-12-04T08:46:44.288Z,21.09
2022-12-04T08:48:45.648Z,21.07
2022-12-04T08:50:46.929Z,21.05
2022-12-04T08:52:50.741Z,21.06
2022-12-04T08:54:52.066Z,21.07
2022-12-04T08:56:53.345Z,21.08
2022-12-04T08:58:54.627Z,21.08
2022-12-04T09:00:55.915Z,21.12
2022-12-04T09:02:57.201Z,20.32
2022-12-04T09:04:58.521Z,21.34
2022-12-04T09:06:59.892Z,20.61
2022-12-04T09:09:01.612Z,17.39
2022-12-04T09:11:02.952Z,16.28
2022-12-04T09:13:04.287Z,15.75
2022-12-04T09:15:05.584Z,15.75
2022-12-04T09:17:06.973Z,16.66
2022-12-04T09:19:08.300Z,18.70
2022-12-04T09:21:09.581Z,19.76
2022-12-04T09:23:10.861Z,20.22
2022-12-04T09:25:12.180Z,20.47
2022-12-04T09:27:15.129Z,20.59
2022-12-04T09:29:16.520Z,20.70
2022-12-04T09:31:20.668Z,20.79
2022-12-04T09:33:22.005Z,20.84
2022-12-04T09:35:23.287Z,20.91
2022-12-04T09:37:24.576Z,21.02
2022-12-04T09:39:25.856Z,21.10
2022-12-04T09:41:27.172Z,21.18
2022-12-04T09:43:28.508Z,21.22
2022-12-04T09:45:29.804Z,21.28
2022-12-04T09:47:31.089Z,21.30
2022-12-04T09:49:32.407Z,21.30
2022-12-04T09:51:33.749Z,21.30
2022-12-04T09:53:35.035Z,21.33
2022-12-04T09:55:36.315Z,21.33
2022-12-04T09:57:37.641Z,21.34
2022-12-04T09:59:38.926Z,21.35
2022-12-04T10:01:40.212Z,21.36
2022-12-04T10:03:41.826Z,21.37
2022-12-04T10:05:43.271Z,21.35
2022-12-04T10:07:44.621Z,21.37
2022-12-04T10:09:45.956Z,21.39
2022-12-04T10:11:47.280Z,21.39
2022-12-04T10:13:48.560Z,21.39
2022-12-04T10:15:52.770Z,21.39
2022-12-04T10:17:54.109Z,21.40
2022-12-04T10:19:55.609Z,21.39
2022-12-04T10:21:57.099Z,21.39
2022-12-04T10:23:58.419Z,21.34
2022-12-04T10:25:59.729Z,21.35
2022-12-04T10:28:01.008Z,21.33
2022-12-04T10:30:02.344Z,21.28
2022-12-04T10:32:03.632Z,21.26
2022-12-04T10:34:04.960Z,21.25
2022-12-04T10:36:06.556Z,21.21
2022-12-04T10:38:07.872Z,21.21
2022-12-04T10:40:09.152Z,21.18
2022-12-04T10:42:10.442Z,21.15
2022-12-04T10:44:11.764Z,21.13
2022-12-04T10:46:16.025Z,21.09
2022-12-04T10:48:17.349Z,21.08
2022-12-04T10:50:18.628Z,21.05
2022-12-04T10:52:19.917Z,21.04
2022-12-04T10:54:23.987Z,21.00
2022-12-04T10:56:25.936Z,20.99
2022-12-04T10:58:27.247Z,20.96
2022-12-04T11:00:28.588Z,20.95
2022-12-04T11:02:30.019Z,20.93
2022-12-04T11:04:31.376Z,21.13
2022-12-04T11:06:32.705Z,20.85
2022-12-04T11:08:34.028Z,20.98
2022-12-04T11:10:35.480Z,21.00
2022-12-04T11:12:36.767Z,20.98
2022-12-04T11:14:40.730Z,21.02
2022-12-04T11:16:50.033Z,21.04
2022-12-04T11:18:51.333Z,21.10
2022-12-04T11:20:52.610Z,21.12
2022-12-04T11:22:54.310Z,21.12
2022-12-04T11:24:55.616Z,21.15
2022-12-04T11:26:56.936Z,21.17
2022-12-04T11:28:58.569Z,21.17
2022-12-04T11:30:59.884Z,21.19
2022-12-04T11:33:01.247Z,21.21
2022-12-04T11:35:02.544Z,21.20
2022-12-04T11:37:03.840Z,21.18
2022-12-04T11:39:05.125Z,21.20
2022-12-04T11:41:06.623Z,21.19
2022-12-04T11:43:07.928Z,21.21
2022-12-04T11:45:09.264Z,21.21
2022-12-04T11:47:10.624Z,21.21
2022-12-04T11:49:11.973Z,21.20
2022-12-04T11:51:13.285Z,21.22
2022-12-04T11:53:14.769Z,21.23
2022-12-04T11:55:16.050Z,21.22
2022-12-04T11:57:17.382Z,21.20
2022-12-04T11:59:18.668Z,21.17
2022-12-04T12:01:20.023Z,21.16
2022-12-04T12:03:21.475Z,21.15
2022-12-04T12:05:23.222Z,21.14
2022-12-04T12:07:24.560Z,21.14
2022-12-04T12:09:25.846Z,21.12
2022-12-04T12:11:27.124Z,21.10
2022-12-04T12:13:28.468Z,21.11
2022-12-04T12:15:29.799Z,21.08
2022-12-04T12:17:31.072Z,21.08
2022-12-04T12:19:33.360Z,21.06
2022-12-04T12:21:34.640Z,21.04
2022-12-04T12:23:35.956Z,21.02
2022-12-04T12:25:37.276Z,20.97
2022-12-04T12:27:38.582Z,21.01
2022-12-04T12:29:39.910Z,21.00
2022-12-04T12:31:41.293Z,21.03
2022-12-04T12:33:42.660Z,21.02
2022-12-04T12:35:44.487Z,21.02
2022-12-04T12:37:45.777Z,21.03
2022-12-04T12:39:47.097Z,21.02
2022-12-04T12:41:48.401Z,21.04
2022-12-04T12:43:49.728Z,21.05
2022-12-04T12:45:51.120Z,21.03
2022-12-04T12:47:52.450Z,21.05
2022-12-04T12:49:54.090Z,21.05
2022-12-04T12:51:55.761Z,21.06
2022-12-04T12:53:57.068Z,21.06
2022-12-04T12:55:58.394Z,21.08
2022-12-04T12:58:02.500Z,21.09
2022-12-04T13:00:03.796Z,21.09
2022-12-04T13:02:05.301Z,21.09
2022-12-04T13:04:06.731Z,21.11
2022-12-04T13:06:08.138Z,21.14
2022-12-04T13:08:09.439Z,21.14
2022-12-04T13:10:10.843Z,21.11
2022-12-04T13:12:12.119Z,21.12
2022-12-04T13:14:13.400Z,21.15
2022-12-04T13:16:14.804Z,21.13
2022-12-04T13:18:16.108Z,21.13
2022-12-04T13:20:17.387Z,21.13
2022-12-04T13:22:18.713Z,21.14
2022-12-04T13:24:20.069Z,21.11
2022-12-04T13:26:21.344Z,21.11
2022-12-04T13:28:22.676Z,21.10
2022-12-04T13:30:26.673Z,21.11
2022-12-04T13:32:28.029Z,20.24
2022-12-04T13:34:29.383Z,21.11
2022-12-04T13:36:30.720Z,20.97
2022-12-04T13:38:32.040Z,21.01
2022-12-04T13:40:33.328Z,21.40
2022-12-04T13:42:34.648Z,21.93
2022-12-04T13:44:36.172Z,22.10
2022-12-04T13:46:40.372Z,22.14
2022-12-04T13:48:41.706Z,22.25
2022-12-04T13:50:43.097Z,22.41
2022-12-04T13:52:44.436Z,22.42
2022-12-04T13:54:45.820Z,22.42
2022-12-04T13:56:47.097Z,22.46
2022-12-04T13:58:48.373Z,22.60
2022-12-04T14:00:49.678Z,22.87
2022-12-04T14:02:51.092Z,22.57
2022-12-04T14:04:52.419Z,22.36
2022-12-04T14:06:53.824Z,22.30
2022-12-04T14:08:55.107Z,22.37
2022-12-04T14:10:56.384Z,21.94
2022-12-04T14:12:57.738Z,21.51
2022-12-04T14:14:59.194Z,21.75
2022-12-04T14:17:00.583Z,21.80
2022-12-04T14:19:01.931Z,21.86
2022-12-04T14:21:04.725Z,21.89
2022-12-04T14:23:06.156Z,22.01
2022-12-04T14:25:07.462Z,21.91
2022-12-04T14:27:12.287Z,21.80
2022-12-04T14:29:13.650Z,21.76
2022-12-04T14:31:15.089Z,21.72
2022-12-04T14:33:16.445Z,21.71
2022-12-04T14:35:17.725Z,21.70
2022-12-04T14:37:19.020Z,21.70
2022-12-04T14:39:20.339Z,21.57
2022-12-04T14:41:21.617Z,21.37
2022-12-04T14:43:22.913Z,21.28
2022-12-04T14:45:24.228Z,21.71
2022-12-04T14:47:25.548Z,21.98
2022-12-04T14:49:29.757Z,22.24
2022-12-04T14:51:31.040Z,22.43
2022-12-04T14:53:33.517Z,22.66
2022-12-04T14:55:34.787Z,22.68
2022-12-04T14:57:36.068Z,22.73
2022-12-04T14:59:37.909Z,22.74
2022-12-04T15:01:39.210Z,22.82
2022-12-04T15:03:40.606Z,22.85
2022-12-04T15:05:42.440Z,22.97
2022-12-04T15:07:43.792Z,22.98
2022-12-04T15:10:03.996Z,22.46
2022-12-04T15:12:23.873Z,22.44
2022-12-04T15:14:25.241Z,22.46
2022-12-04T15:16:26.727Z,22.56
2022-12-04T15:18:28.088Z,22.61
2022-12-04T15:20:32.192Z,22.77
2022-12-04T15:22:38.575Z,22.86
2022-12-04T15:24:40.016Z,22.60
2022-12-04T15:26:41.343Z,22.49
2022-12-04T15:28:45.608Z,22.52
2022-12-04T15:30:47.032Z,22.62
2022-12-04T15:34:49.692Z,22.54
2022-12-04T15:36:50.968Z,22.46
2022-12-04T15:38:52.271Z,22.45
2022-12-04T15:40:53.626Z,22.40
2022-12-04T15:42:55.260Z,22.45
2022-12-04T15:45:02.548Z,22.33
2022-12-04T15:47:03.892Z,22.14
2022-12-04T15:49:08.273Z,21.74
2022-12-04T15:51:09.548Z,21.55
2022-12-04T15:53:11.188Z,21.78
2022-12-04T15:55:12.513Z,21.92
2022-12-04T15:57:13.792Z,22.06
2022-12-04T15:59:15.072Z,22.11
2022-12-04T16:01:16.423Z,22.11
2022-12-04T16:03:20.417Z,22.07
2022-12-04T16:05:21.933Z,22.19
2022-12-04T16:07:23.464Z,22.21
2022-12-04T16:09:24.807Z,22.35
2022-12-04T16:11:26.276Z,22.47
2022-12-04T16:13:30.343Z,22.46
2022-12-04T16:15:31.611Z,22.56
2022-12-04T16:17:32.946Z,22.60
2022-12-04T16:19:34.299Z,22.52
2022-12-04T16:21:35.618Z,21.11
2022-12-04T16:23:36.945Z,22.67
2022-12-04T16:25:38.420Z,22.84
2022-12-04T16:27:39.745Z,22.92
2022-12-04T16:29:41.133Z,23.03
2022-12-04T16:31:42.653Z,23.12
2022-12-04T16:33:43.986Z,23.22
2022-12-04T16:35:45.270Z,23.14
2022-12-04T16:37:46.582Z,23.15
2022-12-04T16:39:47.877Z,23.12
2022-12-04T16:41:49.200Z,23.04
2022-12-04T16:43:50.528Z,23.07
2022-12-04T16:45:51.808Z,23.09
2022-12-04T16:47:56.096Z,23.02
2022-12-04T16:49:57.392Z,23.05
2022-12-04T16:51:58.688Z,23.07
2022-12-04T16:54:00.002Z,23.02
2022-12-04T16:56:01.324Z,22.63
2022-12-04T16:58:02.981Z,22.51
2022-12-04T17:00:04.314Z,22.68
2022-12-04T17:02:05.643Z,22.71
2022-12-04T17:04:07.142Z,22.68
2022-12-04T17:06:08.473Z,22.64
2022-12-04T17:08:09.864Z,22.68
2022-12-04T17:10:12.743Z,22.63
2022-12-04T17:12:14.022Z,22.23
2022-12-04T17:14:15.405Z,21.99
2022-12-04T17:16:19.642Z,21.83
2022-12-04T17:18:21.715Z,21.81
2022-12-04T17:20:23.049Z,21.86
2022-12-04T17:22:26.572Z,21.79
2022-12-04T17:24:27.848Z,21.97
2022-12-04T17:26:29.224Z,22.20
2022-12-04T17:28:30.573Z,22.33
2022-12-04T17:30:35.967Z,22.33
2022-12-04T17:32:37.821Z,22.31
2022-12-04T17:34:39.102Z,22.41
2022-12-04T17:36:40.449Z,22.44
2022-12-04T17:38:41.808Z,22.47
2022-12-04T17:40:43.140Z,22.51
2022-12-04T17:42:47.116Z,22.59
2022-12-04T17:44:48.456Z,22.71
2022-12-04T17:46:49.827Z,22.76
2022-12-04T17:48:51.155Z,22.83
2022-12-04T17:50:52.705Z,22.89
2022-12-04T17:52:53.979Z,22.98
2022-12-04T17:54:55.625Z,22.91
2022-12-04T17:56:58.113Z,22.64
2022-12-04T17:58:59.573Z,22.52
2022-12-04T18:01:00.916Z,22.52
2022-12-04T18:03:02.324Z,22.51
2022-12-04T18:05:06.644Z,22.53
2022-12-04T18:07:07.933Z,22.57
2022-12-04T18:09:09.212Z,22.46
2022-12-04T18:11:10.528Z,22.58
2022-12-04T18:13:11.840Z,22.64
2022-12-04T18:15:13.109Z,19.94
2022-12-04T18:17:17.459Z,21.35
2022-12-04T18:19:18.749Z,22.14
2022-12-04T18:21:20.033Z,22.48
2022-12-04T18:23:21.312Z,22.50
2022-12-04T18:25:22.586Z,22.53
2022-12-04T18:27:24.565Z,22.56
2022-12-04T18:29:25.870Z,22.58
2022-12-04T18:31:27.204Z,22.57
2022-12-04T18:33:28.501Z,22.56
2022-12-04T18:35:32.669Z,22.58
2022-12-04T18:37:34.135Z,22.58
2022-12-04T18:39:35.420Z,22.63
2022-12-04T18:41:36.736Z,22.83
2022-12-04T18:43:38.052Z,22.88
2022-12-04T18:45:39.434Z,22.93
2022-12-04T18:47:40.811Z,22.70
2022-12-04T18:49:42.096Z,22.70
2022-12-04T18:51:49.702Z,22.69
2022-12-04T18:53:51.661Z,22.75
2022-12-04T18:55:53.144Z,22.49
2022-12-04T18:57:54.421Z,22.29
2022-12-04T18:59:56.085Z,22.41
2022-12-04T19:02:03.981Z,22.56
2022-12-04T19:04:08.089Z,22.66
2022-12-04T19:06:09.680Z,22.72
2022-12-04T19:08:11.069Z,22.71
2022-12-04T19:10:12.459Z,22.75
2022-12-04T19:12:13.776Z,22.72
2022-12-04T19:14:23.303Z,22.71
2022-12-04T19:16:24.929Z,22.76
2022-12-04T19:18:28.927Z,22.75
2022-12-04T19:20:30.203Z,22.72
2022-12-04T19:22:31.542Z,22.72
2022-12-04T19:24:32.866Z,22.75
2022-12-04T19:26:36.820Z,22.74
2022-12-04T19:28:38.145Z,22.74
2022-12-04T19:30:39.430Z,22.76
2022-12-04T19:32:41.849Z,22.83
2022-12-04T19:34:43.710Z,22.78
2022-12-04T19:36:48.064Z,22.81
2022-12-04T19:38:49.521Z,22.80
2022-12-04T19:40:50.808Z,22.79
2022-12-04T19:42:52.132Z,22.80
2022-12-04T19:44:53.432Z,22.84
2022-12-04T19:46:54.745Z,22.87
2022-12-04T19:48:58.089Z,22.84
2022-12-04T19:50:59.377Z,22.88
2022-12-04T19:53:00.655Z,22.89
2022-12-04T19:55:01.938Z,22.90
2022-12-04T19:57:03.305Z,22.90
2022-12-04T19:59:04.600Z,22.91
2022-12-04T20:01:09.061Z,22.90
2022-12-04T20:03:12.301Z,22.89
2022-12-04T20:05:16.698Z,22.95
2022-12-04T20:07:18.039Z,22.96
2022-12-04T20:09:19.848Z,22.94
2022-12-04T20:11:21.171Z,22.97
2022-12-04T20:13:22.445Z,22.95
2022-12-04T20:15:23.835Z,22.89
2022-12-04T20:17:25.168Z,22.88
2022-12-04T20:19:26.512Z,22.59
2022-12-04T20:21:30.645Z,22.66
2022-12-04T20:23:31.928Z,22.80
2022-12-04T20:25:36.333Z,22.84
2022-12-04T20:27:37.620Z,22.81
2022-12-04T20:29:38.900Z,22.82
2022-12-04T20:31:40.217Z,22.84
2022-12-04T20:33:41.625Z,22.93
2022-12-04T20:35:42.916Z,22.91
2022-12-04T20:37:46.906Z,22.90
2022-12-04T20:39:48.202Z,22.90
2022-12-04T20:41:49.565Z,22.98
2022-12-04T20:43:50.841Z,22.93
2022-12-04T20:45:52.146Z,22.86
2022-12-04T20:47:59.388Z,22.81
2022-12-04T20:50:00.673Z,22.89
2022-12-04T20:52:02.011Z,22.95
2022-12-04T20:54:03.339Z,22.87
2022-12-04T20:56:04.619Z,22.82
2022-12-04T20:58:06.121Z,22.83
2022-12-04T21:00:07.424Z,22.85
2022-12-04T21:02:08.768Z,22.86
2022-12-04T21:04:10.157Z,23.00
2022-12-04T21:06:14.643Z,23.07
2022-12-04T21:08:35.924Z,23.07
2022-12-04T21:10:37.229Z,23.04
2022-12-04T21:12:57.076Z,23.16
2022-12-04T21:15:17.075Z,23.00
2022-12-04T21:17:18.976Z,22.85
2022-12-04T21:19:20.517Z,22.73
2022-12-04T21:21:21.809Z,22.68
2022-12-04T21:23:23.100Z,22.70
2022-12-04T21:25:26.307Z,22.78
2022-12-04T21:27:27.630Z,22.92
2022-12-04T21:29:31.611Z,22.89
2022-12-04T21:31:33.010Z,22.89
2022-12-04T21:33:34.385Z,23.02
2022-12-04T21:35:35.661Z,22.94
2022-12-04T21:37:36.953Z,22.88
2022-12-04T21:39:39.114Z,22.90
2022-12-04T21:41:59.124Z,22.90
2022-12-04T21:44:00.574Z,23.00
2022-12-04T21:46:07.491Z,23.07
2022-12-04T21:48:10.433Z,23.03
2022-12-04T21:50:11.721Z,23.02
2022-12-04T21:52:13.050Z,23.00
2022-12-04T21:54:14.325Z,22.81
2022-12-04T21:56:15.623Z,22.53
2022-12-04T21:58:16.904Z,22.71
2022-12-04T22:00:18.227Z,23.02
2022-12-04T22:02:19.589Z,23.11
2022-12-04T22:04:21.079Z,23.10
2022-12-04T22:06:22.400Z,23.07
2022-12-04T22:08:23.744Z,23.36
2022-12-04T22:10:25.072Z,23.28
2022-12-04T22:12:48.474Z,23.14
2022-12-04T22:14:47.640Z,23.25
2022-12-04T22:16:49.011Z,23.34
2022-12-04T22:18:50.335Z,23.29
2022-12-04T22:20:51.660Z,23.07
2022-12-04T22:22:52.938Z,23.02
2022-12-04T22:24:54.229Z,23.18
2022-12-04T22:26:55.620Z,23.17
2022-12-04T22:28:57.560Z,23.16
2022-12-04T22:30:58.907Z,23.11
2022-12-04T22:33:00.260Z,23.18
2022-12-04T22:35:01.546Z,23.09
2022-12-04T22:37:02.829Z,23.10
2022-12-04T22:39:11.578Z,23.23
2022-12-04T22:41:12.953Z,23.11
2022-12-04T22:43:14.236Z,23.11
2022-12-04T22:45:15.551Z,22.98
2022-12-04T22:47:16.827Z,23.15
2022-12-04T22:49:18.104Z,23.13
2022-12-04T22:51:19.456Z,23.19
2022-12-04T22:53:20.744Z,23.23
2022-12-04T22:55:22.026Z,23.15
2022-12-04T22:57:23.336Z,23.25
2022-12-04T22:59:24.654Z,23.11
2022-12-04T23:01:25.948Z,23.10
2022-12-04T23:03:27.302Z,23.06
2022-12-04T23:05:28.712Z,23.05
2022-12-04T23:07:30.121Z,23.09
2022-12-04T23:09:31.572Z,23.14
2022-12-04T23:11:32.911Z,23.23
2022-12-04T23:13:34.277Z,23.16
2022-12-04T23:15:35.612Z,23.00
2022-12-04T23:17:36.949Z,22.93
2022-12-04T23:19:38.329Z,23.06
2022-12-04T23:21:39.613Z,23.06
2022-12-04T23:23:40.932Z,21.92
2022-12-04T23:25:42.244Z,19.64
2022-12-04T23:27:43.520Z,19.17
2022-12-04T23:30:05.535Z,20.27
2022-12-04T23:32:06.146Z,21.04
2022-12-04T23:34:07.497Z,21.34
2022-12-04T23:36:08.775Z,21.49
2022-12-04T23:38:10.103Z,21.54
2022-12-04T23:40:11.425Z,21.59
2022-12-04T23:42:12.703Z,21.61
2022-12-04T23:44:13.977Z,21.62
2022-12-04T23:46:15.321Z,21.68
2022-12-04T23:48:16.603Z,21.72
2022-12-04T23:50:17.887Z,21.77
2022-12-04T23:52:19.192Z,21.83
2022-12-04T23:54:20.553Z,21.85
2022-12-04T23:56:21.831Z,21.91
2022-12-04T23:58:23.110Z,21.95
